createdAt,value
2019-02-21T00:04:36.930Z,12.87
2019-02-21T00:09:43.162Z,13.07
2019-02-21T00:14:49.276Z,12.50
2019-02-21T00:19:56.476Z,12.57
2019-02-21T00:25:02.640Z,13.40
2019-02-21T00:30:08.834Z,12.93
2019-02-21T00:35:15.159Z,13.83
2019-02-21T00:40:21.286Z,13.40
2019-02-21T00:45:27.350Z,13.23
2019-02-21T00:50:33.440Z,13.80
2019-02-21T00:55:39.613Z,14.13
2019-02-21T01:00:46.819Z,13.23
2019-02-21T01:05:53.127Z,14.20
2019-02-21T01:10:59.078Z,13.83
2019-02-21T01:16:05.129Z,14.47
2019-02-21T01:21:11.331Z,13.07
2019-02-21T01:26:17.435Z,13.60
2019-02-21T01:31:23.492Z,14.17
2019-02-21T01:36:29.635Z,12.73
2019-02-21T01:41:35.810Z,13.70
2019-02-21T01:46:41.995Z,12.80
2019-02-21T01:51:48.093Z,13.30
2019-02-21T01:56:54.251Z,13.57
2019-02-21T02:02:00.313Z,13.03
2019-02-21T02:07:06.410Z,12.57
2019-02-21T02:12:12.691Z,12.97
2019-02-21T02:17:18.808Z,13.07
2019-02-21T02:22:24.820Z,13.30
2019-02-21T02:27:30.932Z,13.33
2019-02-21T02:32:37.074Z,13.07
2019-02-21T02:37:43.204Z,14.20
2019-02-21T02:42:49.233Z,13.43
2019-02-21T02:47:55.303Z,13.20
2019-02-21T02:53:01.465Z,12.37
2019-02-21T02:58:08.783Z,13.43
2019-02-21T03:03:14.866Z,13.63
2019-02-21T03:08:20.925Z,13.37
2019-02-21T03:13:27.217Z,13.73
2019-02-21T03:18:33.409Z,15.70
2019-02-21T03:23:39.473Z,13.67
2019-02-21T03:28:45.641Z,13.87
2019-02-21T03:33:51.819Z,13.97
2019-02-21T03:38:57.845Z,14.13
2019-02-21T03:44:03.907Z,13.57
2019-02-21T03:49:09.967Z,13.67
2019-02-21T03:54:16.466Z,14.53
2019-02-21T03:59:22.526Z,13.90
2019-02-21T04:04:28.679Z,14.33
2019-02-21T04:09:34.865Z,13.83
2019-02-21T04:14:41.055Z,14.30
2019-02-21T04:19:47.200Z,13.93
2019-02-21T04:24:53.377Z,14.80
2019-02-21T04:29:59.523Z,13.63
2019-02-21T04:35:05.554Z,13.53
2019-02-21T04:40:11.695Z,13.87
2019-02-21T04:45:17.902Z,14.07
2019-02-21T04:50:23.980Z,13.77
2019-02-21T04:55:30.242Z,15.00
2019-02-21T05:00:36.435Z,14.73
2019-02-21T05:05:43.609Z,14.87
2019-02-21T05:10:49.618Z,13.57
2019-02-21T05:15:55.680Z,14.20
2019-02-21T05:21:01.855Z,13.93
2019-02-21T05:26:09.651Z,14.07
2019-02-21T05:31:40.573Z,14.37
2019-02-21T05:37:03.238Z,14.10
2019-02-21T05:42:24.333Z,14.73
2019-02-21T05:47:49.249Z,15.83
2019-02-21T05:53:26.281Z,14.70
2019-02-21T05:58:37.803Z,15.83
2019-02-21T06:03:57.478Z,15.60
2019-02-21T06:09:21.032Z,14.80
2019-02-21T06:14:47.221Z,14.87
2019-02-21T06:20:17.711Z,14.10
2019-02-21T06:25:56.718Z,16.60
2019-02-21T06:31:02.971Z,15.27
2019-02-21T06:36:09.571Z,14.87
2019-02-21T06:41:16.610Z,15.60
2019-02-21T06:46:22.726Z,16.53
2019-02-21T06:51:29.818Z,17.67
2019-02-21T06:56:36.179Z,17.53
2019-02-21T07:01:42.324Z,16.87
2019-02-21T07:06:48.462Z,16.50
2019-02-21T07:11:54.608Z,15.83
2019-02-21T07:17:00.665Z,15.43
2019-02-21T07:22:06.754Z,14.83
2019-02-21T07:27:12.935Z,14.17
2019-02-21T07:32:19.016Z,15.27
2019-02-21T07:37:25.116Z,14.73
2019-02-21T07:42:31.213Z,14.00
2019-02-21T07:47:37.422Z,13.80
2019-02-21T07:52:43.529Z,15.60
2019-02-21T07:57:49.565Z,14.67
2019-02-21T08:02:55.645Z,14.57
2019-02-21T08:08:01.728Z,15.23
2019-02-21T08:13:07.913Z,14.67
2019-02-21T08:18:15.141Z,15.87
2019-02-21T08:23:21.187Z,17.70
2019-02-21T08:28:28.385Z,17.27
2019-02-21T08:33:58.550Z,16.90
2019-02-21T08:39:01.233Z,16.20
2019-02-21T08:44:08.834Z,18.67
2019-02-21T08:49:14.908Z,17.90
2019-02-21T08:54:21.076Z,17.83
2019-02-21T08:59:27.260Z,17.73
2019-02-21T09:04:33.449Z,19.13
2019-02-21T09:09:39.721Z,18.07
2019-02-21T09:14:45.889Z,19.23
2019-02-21T09:19:51.894Z,19.03
2019-02-21T09:24:57.924Z,19.13
2019-02-21T09:30:05.184Z,17.90
2019-02-21T09:35:11.514Z,19.27
2019-02-21T09:40:17.601Z,19.20
2019-02-21T09:45:23.685Z,19.67
2019-02-21T09:50:29.886Z,18.87
2019-02-21T09:55:36.035Z,18.63
2019-02-21T10:00:42.014Z,18.43
2019-02-21T10:05:49.903Z,19.13
2019-02-21T10:10:56.719Z,18.53
2019-02-21T10:16:04.738Z,18.37
2019-02-21T10:21:10.642Z,18.43
2019-02-21T10:26:16.662Z,18.23
2019-02-21T10:31:22.753Z,18.87
2019-02-21T10:36:28.858Z,18.67
2019-02-21T10:41:34.884Z,17.57
2019-02-21T10:46:41.090Z,18.10
2019-02-21T10:51:47.141Z,18.57
2019-02-21T10:56:53.151Z,19.10
2019-02-21T11:01:59.115Z,18.53
2019-02-21T11:07:05.372Z,18.93
2019-02-21T11:12:11.553Z,18.20
2019-02-21T11:17:17.642Z,18.27
2019-02-21T11:22:23.724Z,18.63
2019-02-21T11:27:30.049Z,17.53
2019-02-21T11:32:36.103Z,17.63
2019-02-21T11:37:44.448Z,17.20
2019-02-21T11:42:50.173Z,16.53
2019-02-21T11:47:56.292Z,16.40
2019-02-21T11:53:02.318Z,16.97
2019-02-21T11:58:08.473Z,16.40
2019-02-21T12:03:14.675Z,16.83
2019-02-21T12:08:20.817Z,16.20
2019-02-21T12:13:26.935Z,16.47
2019-02-21T12:18:32.984Z,15.73
2019-02-21T12:23:39.152Z,14.73
2019-02-21T12:28:46.352Z,14.50
2019-02-21T12:33:52.551Z,15.53
2019-02-21T12:38:58.538Z,14.93
2019-02-21T12:44:04.491Z,15.07
2019-02-21T12:49:10.843Z,14.10
2019-02-21T12:54:16.998Z,13.63
2019-02-21T12:59:23.045Z,13.00
2019-02-21T13:04:29.123Z,12.20
2019-02-21T13:09:35.214Z,12.17
2019-02-21T13:14:41.242Z,11.07
2019-02-21T13:19:47.419Z,12.03
2019-02-21T13:24:53.481Z,13.17
2019-02-21T13:29:59.572Z,13.40
2019-02-21T13:35:07.066Z,12.53
2019-02-21T13:40:14.191Z,13.07
2019-02-21T13:45:20.265Z,13.17
2019-02-21T13:50:26.492Z,13.33
2019-02-21T13:55:32.600Z,13.33
2019-02-21T14:00:38.690Z,14.23
2019-02-21T14:05:44.862Z,14.40
2019-02-21T14:10:51.021Z,16.50
2019-02-21T14:15:57.129Z,15.40
2019-02-21T14:21:03.269Z,15.73
2019-02-21T14:26:09.523Z,15.73
2019-02-21T14:31:15.551Z,15.40
2019-02-21T14:36:21.722Z,15.60
2019-02-21T14:41:27.881Z,16.33
2019-02-21T14:46:34.011Z,14.53
2019-02-21T14:51:40.056Z,15.83
2019-02-21T14:56:46.219Z,15.47
2019-02-21T15:01:52.390Z,15.73
2019-02-21T15:06:58.564Z,15.60
2019-02-21T15:12:04.653Z,14.63
2019-02-21T15:17:10.733Z,14.80
2019-02-21T15:22:16.899Z,16.60
2019-02-21T15:27:23.619Z,18.77
2019-02-21T15:32:29.849Z,16.00
2019-02-21T15:37:35.962Z,15.80
2019-02-21T15:42:41.940Z,15.50
2019-02-21T15:47:48.040Z,17.07
2019-02-21T15:52:54.211Z,15.23
2019-02-21T15:58:04.032Z,15.27
2019-02-21T16:03:08.081Z,15.67
2019-02-21T16:08:14.135Z,15.60
2019-02-21T16:13:20.717Z,15.53
2019-02-21T16:18:27.097Z,17.93
2019-02-21T16:23:33.391Z,15.57
2019-02-21T16:28:39.576Z,16.33
2019-02-21T16:33:45.654Z,15.43
2019-02-21T16:38:51.585Z,16.33
2019-02-21T16:43:57.726Z,15.90
2019-02-21T16:49:03.852Z,15.20
2019-02-21T16:54:10.029Z,15.70
2019-02-21T16:59:16.129Z,14.77
2019-02-21T17:04:22.192Z,14.23
2019-02-21T17:09:28.904Z,14.07
2019-02-21T17:14:35.059Z,14.07
2019-02-21T17:19:41.120Z,13.40
2019-02-21T17:24:47.221Z,14.87
2019-02-21T17:29:53.483Z,12.60
2019-02-21T17:35:00.047Z,12.23
2019-02-21T17:40:06.561Z,12.57
2019-02-21T17:45:13.591Z,12.27
2019-02-21T17:50:20.196Z,12.13
2019-02-21T17:55:27.619Z,12.50
2019-02-21T18:00:38.050Z,12.80
2019-02-21T18:05:44.345Z,13.67
2019-02-21T18:10:50.964Z,13.63
2019-02-21T18:15:57.068Z,14.70
2019-02-21T18:21:03.482Z,14.13
2019-02-21T18:26:16.287Z,15.33
2019-02-21T18:31:22.841Z,15.63
2019-02-21T18:36:29.130Z,17.20
2019-02-21T18:41:36.239Z,17.70
2019-02-21T18:46:42.325Z,17.93
2019-02-21T18:52:07.274Z,18.53
2019-02-21T18:57:24.357Z,21.77
2019-02-21T19:02:30.639Z,22.10
2019-02-21T19:07:36.827Z,22.20
2019-02-21T19:12:42.984Z,22.43
2019-02-21T19:17:49.117Z,22.00
2019-02-21T19:22:55.126Z,23.03
2019-02-21T19:28:02.274Z,24.43
2019-02-21T19:33:08.353Z,24.70
2019-02-21T19:38:14.684Z,24.10
2019-02-21T19:43:20.913Z,22.23
2019-02-21T19:48:27.038Z,24.27
2019-02-21T19:53:33.242Z,22.90
2019-02-21T19:58:39.492Z,23.30
2019-02-21T20:03:45.565Z,24.70
2019-02-21T20:08:51.715Z,25.60
2019-02-21T20:13:58.057Z,23.70
2019-02-21T20:19:04.234Z,25.17
2019-02-21T20:24:10.282Z,24.27
2019-02-21T20:29:16.601Z,24.70
2019-02-21T20:34:22.769Z,26.27
2019-02-21T20:39:28.844Z,25.47
2019-02-21T20:44:35.111Z,24.50
2019-02-21T20:49:41.212Z,24.47
2019-02-21T20:54:47.376Z,25.17
2019-02-21T20:59:53.642Z,26.17
2019-02-21T21:04:59.893Z,26.97
2019-02-21T21:10:08.025Z,25.80
2019-02-21T21:15:14.413Z,27.57
2019-02-21T21:20:20.603Z,28.90
2019-02-21T21:25:26.773Z,32.33
2019-02-21T21:30:32.846Z,33.20
2019-02-21T21:35:38.909Z,39.17
2019-02-21T21:40:44.977Z,36.90
2019-02-21T21:45:51.191Z,38.73
2019-02-21T21:50:57.304Z,40.70
2019-02-21T21:56:03.316Z,40.77
2019-02-21T22:01:09.393Z,40.70
2019-02-21T22:06:15.672Z,40.17
2019-02-21T22:11:21.748Z,38.97
2019-02-21T22:16:28.178Z,41.50
2019-02-21T22:21:36.273Z,40.30
2019-02-21T22:26:42.443Z,43.47
2019-02-21T22:31:48.582Z,44.53
2019-02-21T22:36:54.796Z,48.77
2019-02-21T22:42:00.836Z,48.10
2019-02-21T22:47:07.058Z,45.10
2019-02-21T22:52:12.892Z,43.60
2019-02-21T22:57:18.993Z,42.83
2019-02-21T23:02:25.676Z,45.50
2019-02-21T23:07:39.100Z,44.50
2019-02-21T23:12:45.206Z,42.57
2019-02-21T23:17:52.830Z,41.60
2019-02-21T23:22:58.923Z,46.83
2019-02-21T23:28:05.158Z,45.70
2019-02-21T23:33:11.353Z,42.67
2019-02-21T23:38:17.424Z,46.33
2019-02-21T23:43:23.688Z,43.93
2019-02-21T23:48:29.861Z,43.60
2019-02-21T23:53:35.936Z,45.07
2019-02-21T23:58:42.111Z,47.40
